sensor_id;sensor_type;location;lat;lon;timestamp;P1;durP1;ratioP1;P2;durP2;ratioP2
52610;SDS011;38727;40.130;18.292;2024-02-04T00:00:35;46.65;;;28.75;;
52610;SDS011;38727;40.130;18.292;2024-02-04T00:03:09;50.83;;;30.88;;
52610;SDS011;38727;40.130;18.292;2024-02-04T00:05:40;47.33;;;30.13;;
52610;SDS011;38727;40.130;18.292;2024-02-04T00:08:11;50.75;;;29.58;;
52610;SDS011;38727;40.130;18.292;2024-02-04T00:10:44;43.05;;;28.95;;
52610;SDS011;38727;40.130;18.292;2024-02-04T00:13:15;41.50;;;26.25;;
52610;SDS011;38727;40.130;18.292;2024-02-04T00:15:48;43.70;;;27.65;;
52610;SDS011;38727;40.130;18.292;2024-02-04T00:20:51;44.80;;;27.73;;
52610;SDS011;38727;40.130;18.292;2024-02-04T00:23:21;41.75;;;26.95;;
52610;SDS011;38727;40.130;18.292;2024-02-04T00:25:51;40.83;;;27.35;;
52610;SDS011;38727;40.130;18.292;2024-02-04T00:28:22;40.75;;;25.75;;
52610;SDS011;38727;40.130;18.292;2024-02-04T00:30:54;40.55;;;25.77;;
52610;SDS011;38727;40.130;18.292;2024-02-04T00:33:27;39.20;;;26.75;;
52610;SDS011;38727;40.130;18.292;2024-02-04T00:35:58;40.85;;;27.30;;
52610;SDS011;38727;40.130;18.292;2024-02-04T00:38:28;41.55;;;26.52;;
52610;SDS011;38727;40.130;18.292;2024-02-04T00:40:58;39.95;;;25.42;;
52610;SDS011;38727;40.130;18.292;2024-02-04T00:43:31;47.03;;;25.98;;
52610;SDS011;38727;40.130;18.292;2024-02-04T00:46:04;40.05;;;26.13;;
52610;SDS011;38727;40.130;18.292;2024-02-04T00:48:36;43.40;;;25.90;;
52610;SDS011;38727;40.130;18.292;2024-02-04T00:51:08;39.13;;;25.15;;
52610;SDS011;38727;40.130;18.292;2024-02-04T00:53:39;39.40;;;25.17;;
52610;SDS011;38727;40.130;18.292;2024-02-04T00:56:09;42.03;;;25.48;;
52610;SDS011;38727;40.130;18.292;2024-02-04T00:58:40;37.28;;;25.38;;
52610;SDS011;38727;40.130;18.292;2024-02-04T01:01:12;40.65;;;25.00;;
52610;SDS011;38727;40.130;18.292;2024-02-04T01:03:42;41.58;;;25.80;;
52610;SDS011;38727;40.130;18.292;2024-02-04T01:06:12;35.72;;;24.38;;
52610;SDS011;38727;40.130;18.292;2024-02-04T01:08:43;39.90;;;25.00;;
52610;SDS011;38727;40.130;18.292;2024-02-04T01:11:13;41.78;;;25.42;;
52610;SDS011;38727;40.130;18.292;2024-02-04T01:13:43;39.35;;;25.10;;
52610;SDS011;38727;40.130;18.292;2024-02-04T01:16:14;36.33;;;23.38;;
52610;SDS011;38727;40.130;18.292;2024-02-04T01:18:44;38.97;;;24.88;;
52610;SDS011;38727;40.130;18.292;2024-02-04T01:21:14;40.55;;;25.00;;
52610;SDS011;38727;40.130;18.292;2024-02-04T01:23:45;35.53;;;25.13;;
52610;SDS011;38727;40.130;18.292;2024-02-04T01:26:16;42.75;;;27.25;;
52610;SDS011;38727;40.130;18.292;2024-02-04T01:28:46;40.75;;;25.05;;
52610;SDS011;38727;40.130;18.292;2024-02-04T01:31:18;40.03;;;25.50;;
52610;SDS011;38727;40.130;18.292;2024-02-04T01:33:48;40.53;;;24.55;;
52610;SDS011;38727;40.130;18.292;2024-02-04T01:36:18;36.85;;;22.25;;
52610;SDS011;38727;40.130;18.292;2024-02-04T01:38:48;36.30;;;24.05;;
52610;SDS011;38727;40.130;18.292;2024-02-04T01:41:19;41.35;;;24.63;;
52610;SDS011;38727;40.130;18.292;2024-02-04T01:43:49;36.95;;;21.85;;
52610;SDS011;38727;40.130;18.292;2024-02-04T01:46:21;34.00;;;22.77;;
52610;SDS011;38727;40.130;18.292;2024-02-04T01:48:53;36.20;;;23.30;;
52610;SDS011;38727;40.130;18.292;2024-02-04T01:51:23;36.65;;;22.58;;
52610;SDS011;38727;40.130;18.292;2024-02-04T01:53:54;32.47;;;22.23;;
52610;SDS011;38727;40.130;18.292;2024-02-04T01:56:26;36.67;;;22.92;;
52610;SDS011;38727;40.130;18.292;2024-02-04T01:58:57;33.35;;;21.58;;
52610;SDS011;38727;40.130;18.292;2024-02-04T02:01:34;35.10;;;22.88;;
52610;SDS011;38727;40.130;18.292;2024-02-04T02:04:04;35.20;;;22.88;;
52610;SDS011;38727;40.130;18.292;2024-02-04T02:06:34;37.35;;;23.65;;
52610;SDS011;38727;40.130;18.292;2024-02-04T02:09:09;33.80;;;21.65;;
52610;SDS011;38727;40.130;18.292;2024-02-04T02:11:40;36.65;;;23.02;;
52610;SDS011;38727;40.130;18.292;2024-02-04T02:14:16;36.55;;;22.15;;
52610;SDS011;38727;40.130;18.292;2024-02-04T02:16:54;34.75;;;20.08;;
52610;SDS011;38727;40.130;18.292;2024-02-04T02:19:31;33.00;;;22.15;;
52610;SDS011;38727;40.130;18.292;2024-02-04T02:22:12;34.15;;;21.45;;
52610;SDS011;38727;40.130;18.292;2024-02-04T02:24:53;38.63;;;22.23;;
52610;SDS011;38727;40.130;18.292;2024-02-04T02:27:27;32.88;;;22.02;;
52610;SDS011;38727;40.130;18.292;2024-02-04T02:29:57;31.80;;;20.55;;
52610;SDS011;38727;40.130;18.292;2024-02-04T02:32:27;31.95;;;21.45;;
52610;SDS011;38727;40.130;18.292;2024-02-04T02:34:57;30.08;;;20.30;;
52610;SDS011;38727;40.130;18.292;2024-02-04T02:37:29;28.85;;;18.55;;
52610;SDS011;38727;40.130;18.292;2024-02-04T02:40:08;31.30;;;18.63;;
52610;SDS011;38727;40.130;18.292;2024-02-04T02:42:44;32.20;;;19.02;;
52610;SDS011;38727;40.130;18.292;2024-02-04T02:45:19;33.63;;;18.60;;
52610;SDS011;38727;40.130;18.292;2024-02-04T02:47:52;29.58;;;18.45;;
52610;SDS011;38727;40.130;18.292;2024-02-04T02:50:26;29.42;;;18.38;;
52610;SDS011;38727;40.130;18.292;2024-02-04T02:52:59;29.95;;;19.48;;
52610;SDS011;38727;40.130;18.292;2024-02-04T02:55:31;28.20;;;18.70;;
52610;SDS011;38727;40.130;18.292;2024-02-04T02:58:01;33.03;;;20.92;;
52610;SDS011;38727;40.130;18.292;2024-02-04T03:00:32;31.00;;;19.15;;
52610;SDS011;38727;40.130;18.292;2024-02-04T03:03:03;27.00;;;17.02;;
52610;SDS011;38727;40.130;18.292;2024-02-04T03:05:34;26.67;;;17.38;;
52610;SDS011;38727;40.130;18.292;2024-02-04T03:08:06;28.40;;;19.05;;
52610;SDS011;38727;40.130;18.292;2024-02-04T03:10:38;31.10;;;19.65;;
52610;SDS011;38727;40.130;18.292;2024-02-04T03:13:09;25.73;;;16.58;;
52610;SDS011;38727;40.130;18.292;2024-02-04T03:15:40;26.20;;;16.73;;
52610;SDS011;38727;40.130;18.292;2024-02-04T03:18:14;28.60;;;18.15;;
52610;SDS011;38727;40.130;18.292;2024-02-04T03:20:44;27.73;;;17.60;;
52610;SDS011;38727;40.130;18.292;2024-02-04T03:23:15;25.33;;;16.20;;
52610;SDS011;38727;40.130;18.292;2024-02-04T03:25:48;24.38;;;15.90;;
52610;SDS011;38727;40.130;18.292;2024-02-04T03:28:18;25.67;;;16.42;;
52610;SDS011;38727;40.130;18.292;2024-02-04T03:30:49;28.10;;;20.27;;
52610;SDS011;38727;40.130;18.292;2024-02-04T03:33:20;30.73;;;21.05;;
52610;SDS011;38727;40.130;18.292;2024-02-04T03:35:51;34.45;;;23.10;;
52610;SDS011;38727;40.130;18.292;2024-02-04T03:38:21;35.30;;;26.15;;
52610;SDS011;38727;40.130;18.292;2024-02-04T03:40:54;33.83;;;23.63;;
52610;SDS011;38727;40.130;18.292;2024-02-04T03:43:24;35.90;;;23.67;;
52610;SDS011;38727;40.130;18.292;2024-02-04T03:45:59;34.90;;;23.50;;
52610;SDS011;38727;40.130;18.292;2024-02-04T03:48:30;39.47;;;25.77;;
52610;SDS011;38727;40.130;18.292;2024-02-04T03:51:01;38.95;;;25.17;;
52610;SDS011;38727;40.130;18.292;2024-02-04T03:53:32;37.45;;;23.27;;
52610;SDS011;38727;40.130;18.292;2024-02-04T03:56:06;43.20;;;26.08;;
52610;SDS011;38727;40.130;18.292;2024-02-04T03:58:35;41.25;;;26.65;;
52610;SDS011;38727;40.130;18.292;2024-02-04T04:01:10;31.95;;;20.45;;
52610;SDS011;38727;40.130;18.292;2024-02-04T04:03:41;30.20;;;18.90;;
52610;SDS011;38727;40.130;18.292;2024-02-04T04:06:12;29.77;;;19.33;;
52610;SDS011;38727;40.130;18.292;2024-02-04T04:08:43;30.15;;;19.02;;
52610;SDS011;38727;40.130;18.292;2024-02-04T04:11:19;27.13;;;19.05;;
52610;SDS011;38727;40.130;18.292;2024-02-04T04:13:50;31.15;;;18.73;;
52610;SDS011;38727;40.130;18.292;2024-02-04T04:16:21;27.02;;;18.00;;
52610;SDS011;38727;40.130;18.292;2024-02-04T04:18:52;31.08;;;21.90;;
52610;SDS011;38727;40.130;18.292;2024-02-04T04:21:24;34.45;;;23.20;;
52610;SDS011;38727;40.130;18.292;2024-02-04T04:23:55;34.78;;;23.67;;
52610;SDS011;38727;40.130;18.292;2024-02-04T04:26:29;32.97;;;22.40;;
52610;SDS011;38727;40.130;18.292;2024-02-04T04:29:01;38.43;;;23.43;;
52610;SDS011;38727;40.130;18.292;2024-02-04T04:31:31;32.58;;;22.42;;
52610;SDS011;38727;40.130;18.292;2024-02-04T04:34:03;31.08;;;22.52;;
52610;SDS011;38727;40.130;18.292;2024-02-04T04:36:33;37.97;;;23.55;;
52610;SDS011;38727;40.130;18.292;2024-02-04T04:39:04;33.45;;;23.05;;
52610;SDS011;38727;40.130;18.292;2024-02-04T04:41:36;33.67;;;23.38;;
52610;SDS011;38727;40.130;18.292;2024-02-04T04:44:07;33.72;;;22.38;;
52610;SDS011;38727;40.130;18.292;2024-02-04T04:46:38;32.20;;;20.23;;
52610;SDS011;38727;40.130;18.292;2024-02-04T04:49:09;31.13;;;19.80;;
52610;SDS011;38727;40.130;18.292;2024-02-04T04:51:43;31.70;;;21.05;;
52610;SDS011;38727;40.130;18.292;2024-02-04T04:54:15;34.60;;;21.27;;
52610;SDS011;38727;40.130;18.292;2024-02-04T04:56:47;34.03;;;21.75;;
52610;SDS011;38727;40.130;18.292;2024-02-04T04:59:18;30.77;;;21.67;;
52610;SDS011;38727;40.130;18.292;2024-02-04T05:01:49;32.85;;;21.95;;
52610;SDS011;38727;40.130;18.292;2024-02-04T05:04:20;32.88;;;21.85;;
52610;SDS011;38727;40.130;18.292;2024-02-04T05:06:52;34.03;;;21.80;;
52610;SDS011;38727;40.130;18.292;2024-02-04T05:09:23;31.48;;;20.17;;
52610;SDS011;38727;40.130;18.292;2024-02-04T05:11:56;30.48;;;18.13;;
52610;SDS011;38727;40.130;18.292;2024-02-04T05:14:27;27.65;;;19.13;;
52610;SDS011;38727;40.130;18.292;2024-02-04T05:16:57;28.17;;;17.23;;
52610;SDS011;38727;40.130;18.292;2024-02-04T05:19:28;30.67;;;21.35;;
52610;SDS011;38727;40.130;18.292;2024-02-04T05:22:00;28.90;;;19.52;;
52610;SDS011;38727;40.130;18.292;2024-02-04T05:24:31;30.13;;;20.73;;
52610;SDS011;38727;40.130;18.292;2024-02-04T05:27:05;31.67;;;21.50;;
52610;SDS011;38727;40.130;18.292;2024-02-04T05:29:36;27.20;;;18.90;;
52610;SDS011;38727;40.130;18.292;2024-02-04T05:32:06;29.30;;;20.25;;
52610;SDS011;38727;40.130;18.292;2024-02-04T05:34:36;29.00;;;20.83;;
52610;SDS011;38727;40.130;18.292;2024-02-04T05:37:09;31.42;;;20.90;;
52610;SDS011;38727;40.130;18.292;2024-02-04T05:39:40;26.73;;;19.02;;
52610;SDS011;38727;40.130;18.292;2024-02-04T05:42:12;29.73;;;20.23;;
52610;SDS011;38727;40.130;18.292;2024-02-04T05:44:46;32.35;;;21.77;;
52610;SDS011;38727;40.130;18.292;2024-02-04T05:47:16;31.92;;;22.13;;
52610;SDS011;38727;40.130;18.292;2024-02-04T05:49:47;30.45;;;21.38;;
52610;SDS011;38727;40.130;18.292;2024-02-04T05:52:18;23.05;;;15.63;;
52610;SDS011;38727;40.130;18.292;2024-02-04T05:54:49;22.20;;;14.48;;
52610;SDS011;38727;40.130;18.292;2024-02-04T05:57:21;22.95;;;14.77;;
52610;SDS011;38727;40.130;18.292;2024-02-04T05:59:52;24.17;;;15.25;;
52610;SDS011;38727;40.130;18.292;2024-02-04T06:02:27;25.90;;;15.68;;
52610;SDS011;38727;40.130;18.292;2024-02-04T06:04:57;22.33;;;15.10;;
52610;SDS011;38727;40.130;18.292;2024-02-04T06:07:28;24.92;;;14.82;;
52610;SDS011;38727;40.130;18.292;2024-02-04T06:09:59;20.83;;;15.13;;
52610;SDS011;38727;40.130;18.292;2024-02-04T06:12:33;24.58;;;14.88;;
52610;SDS011;38727;40.130;18.292;2024-02-04T06:15:05;21.33;;;13.93;;
52610;SDS011;38727;40.130;18.292;2024-02-04T06:17:41;21.90;;;14.18;;
52610;SDS011;38727;40.130;18.292;2024-02-04T06:20:11;23.95;;;15.10;;
52610;SDS011;38727;40.130;18.292;2024-02-04T06:22:41;22.17;;;15.60;;
52610;SDS011;38727;40.130;18.292;2024-02-04T06:25:12;23.10;;;15.45;;
52610;SDS011;38727;40.130;18.292;2024-02-04T06:27:44;25.67;;;16.48;;
52610;SDS011;38727;40.130;18.292;2024-02-04T06:30:16;21.60;;;17.20;;
52610;SDS011;38727;40.130;18.292;2024-02-04T06:32:47;23.98;;;17.15;;
52610;SDS011;38727;40.130;18.292;2024-02-04T06:35:18;22.40;;;15.90;;
52610;SDS011;38727;40.130;18.292;2024-02-04T06:37:49;23.27;;;16.88;;
52610;SDS011;38727;40.130;18.292;2024-02-04T06:40:20;22.67;;;15.25;;
52610;SDS011;38727;40.130;18.292;2024-02-04T06:42:52;22.83;;;16.45;;
52610;SDS011;38727;40.130;18.292;2024-02-04T06:45:23;23.13;;;16.60;;
52610;SDS011;38727;40.130;18.292;2024-02-04T06:47:54;22.83;;;16.50;;
52610;SDS011;38727;40.130;18.292;2024-02-04T06:50:25;25.08;;;16.85;;
52610;SDS011;38727;40.130;18.292;2024-02-04T06:52:56;30.13;;;18.23;;
52610;SDS011;38727;40.130;18.292;2024-02-04T06:55:28;27.10;;;18.48;;
52610;SDS011;38727;40.130;18.292;2024-02-04T06:58:00;25.30;;;18.20;;
52610;SDS011;38727;40.130;18.292;2024-02-04T07:00:31;26.30;;;17.45;;
52610;SDS011;38727;40.130;18.292;2024-02-04T07:03:03;31.00;;;19.08;;
52610;SDS011;38727;40.130;18.292;2024-02-04T07:05:33;28.63;;;19.40;;
52610;SDS011;38727;40.130;18.292;2024-02-04T07:08:05;27.08;;;18.65;;
52610;SDS011;38727;40.130;18.292;2024-02-04T07:10:39;22.75;;;16.60;;
52610;SDS011;38727;40.130;18.292;2024-02-04T07:13:12;26.52;;;17.85;;
52610;SDS011;38727;40.130;18.292;2024-02-04T07:15:43;22.13;;;16.27;;
52610;SDS011;38727;40.130;18.292;2024-02-04T07:18:16;26.55;;;17.10;;
52610;SDS011;38727;40.130;18.292;2024-02-04T07:20:49;22.92;;;16.73;;
52610;SDS011;38727;40.130;18.292;2024-02-04T07:23:20;21.20;;;15.32;;
52610;SDS011;38727;40.130;18.292;2024-02-04T07:25:53;22.52;;;16.42;;
52610;SDS011;38727;40.130;18.292;2024-02-04T07:28:25;20.52;;;15.70;;
52610;SDS011;38727;40.130;18.292;2024-02-04T07:30:56;20.90;;;15.57;;
52610;SDS011;38727;40.130;18.292;2024-02-04T07:33:27;20.33;;;15.82;;
52610;SDS011;38727;40.130;18.292;2024-02-04T07:35:58;23.52;;;16.75;;
52610;SDS011;38727;40.130;18.292;2024-02-04T07:38:30;22.58;;;16.10;;
52610;SDS011;38727;40.130;18.292;2024-02-04T07:41:00;22.30;;;15.48;;
52610;SDS011;38727;40.130;18.292;2024-02-04T07:43:33;20.70;;;14.73;;
52610;SDS011;38727;40.130;18.292;2024-02-04T07:46:04;17.77;;;13.20;;
52610;SDS011;38727;40.130;18.292;2024-02-04T07:48:37;17.63;;;11.00;;
52610;SDS011;38727;40.130;18.292;2024-02-04T07:51:08;16.38;;;12.65;;
52610;SDS011;38727;40.130;18.292;2024-02-04T07:53:39;19.90;;;13.27;;
52610;SDS011;38727;40.130;18.292;2024-02-04T07:56:10;19.98;;;13.38;;
52610;SDS011;38727;40.130;18.292;2024-02-04T07:58:43;15.68;;;10.00;;
52610;SDS011;38727;40.130;18.292;2024-02-04T08:01:14;14.80;;;9.88;;
52610;SDS011;38727;40.130;18.292;2024-02-04T08:03:44;16.85;;;11.90;;
52610;SDS011;38727;40.130;18.292;2024-02-04T08:06:15;14.18;;;10.00;;
52610;SDS011;38727;40.130;18.292;2024-02-04T08:08:47;15.38;;;9.55;;
52610;SDS011;38727;40.130;18.292;2024-02-04T08:11:18;15.27;;;9.57;;
52610;SDS011;38727;40.130;18.292;2024-02-04T08:13:51;11.00;;;8.02;;
52610;SDS011;38727;40.130;18.292;2024-02-04T08:16:22;11.45;;;8.38;;
52610;SDS011;38727;40.130;18.292;2024-02-04T08:18:52;12.95;;;9.10;;
52610;SDS011;38727;40.130;18.292;2024-02-04T08:21:26;12.63;;;9.32;;
52610;SDS011;38727;40.130;18.292;2024-02-04T08:23:59;11.05;;;8.60;;
52610;SDS011;38727;40.130;18.292;2024-02-04T08:26:29;9.05;;;7.38;;
52610;SDS011;38727;40.130;18.292;2024-02-04T08:29:01;13.32;;;8.65;;
52610;SDS011;38727;40.130;18.292;2024-02-04T08:31:32;10.27;;;7.30;;
52610;SDS011;38727;40.130;18.292;2024-02-04T08:34:03;12.23;;;7.90;;
52610;SDS011;38727;40.130;18.292;2024-02-04T08:36:36;11.02;;;7.28;;
52610;SDS011;38727;40.130;18.292;2024-02-04T08:39:06;8.85;;;6.20;;
52610;SDS011;38727;40.130;18.292;2024-02-04T08:41:37;11.32;;;5.88;;
52610;SDS011;38727;40.130;18.292;2024-02-04T08:44:10;7.50;;;5.05;;
52610;SDS011;38727;40.130;18.292;2024-02-04T08:46:42;8.35;;;5.50;;
52610;SDS011;38727;40.130;18.292;2024-02-04T08:49:13;6.43;;;4.20;;
52610;SDS011;38727;40.130;18.292;2024-02-04T08:51:45;6.70;;;4.70;;
52610;SDS011;38727;40.130;18.292;2024-02-04T08:54:16;6.72;;;4.50;;
52610;SDS011;38727;40.130;18.292;2024-02-04T08:56:46;6.47;;;5.18;;
52610;SDS011;38727;40.130;18.292;2024-02-04T08:59:18;6.68;;;4.07;;
52610;SDS011;38727;40.130;18.292;2024-02-04T09:01:49;9.15;;;5.68;;
52610;SDS011;38727;40.130;18.292;2024-02-04T09:04:20;9.65;;;5.63;;
52610;SDS011;38727;40.130;18.292;2024-02-04T09:06:51;14.05;;;6.60;;
52610;SDS011;38727;40.130;18.292;2024-02-04T09:09:22;11.50;;;6.72;;
52610;SDS011;38727;40.130;18.292;2024-02-04T09:11:54;9.35;;;6.75;;
52610;SDS011;38727;40.130;18.292;2024-02-04T09:14:26;7.72;;;5.15;;
52610;SDS011;38727;40.130;18.292;2024-02-04T09:16:58;8.17;;;5.17;;
52610;SDS011;38727;40.130;18.292;2024-02-04T09:19:28;9.48;;;6.43;;
52610;SDS011;38727;40.130;18.292;2024-02-04T09:21:58;9.05;;;5.60;;
52610;SDS011;38727;40.130;18.292;2024-02-04T09:24:31;8.20;;;5.40;;
52610;SDS011;38727;40.130;18.292;2024-02-04T09:27:01;7.32;;;4.65;;
52610;SDS011;38727;40.130;18.292;2024-02-04T09:29:34;7.25;;;4.47;;
52610;SDS011;38727;40.130;18.292;2024-02-04T09:32:07;9.67;;;5.23;;
52610;SDS011;38727;40.130;18.292;2024-02-04T09:34:37;7.75;;;5.20;;
52610;SDS011;38727;40.130;18.292;2024-02-04T09:37:09;10.45;;;5.50;;
52610;SDS011;38727;40.130;18.292;2024-02-04T09:39:41;9.68;;;5.20;;
52610;SDS011;38727;40.130;18.292;2024-02-04T09:42:18;8.63;;;5.07;;
52610;SDS011;38727;40.130;18.292;2024-02-04T09:44:52;8.77;;;5.50;;
52610;SDS011;38727;40.130;18.292;2024-02-04T09:47:23;12.65;;;7.30;;
52610;SDS011;38727;40.130;18.292;2024-02-04T09:49:54;9.30;;;6.55;;
52610;SDS011;38727;40.130;18.292;2024-02-04T09:52:26;14.68;;;7.65;;
52610;SDS011;38727;40.130;18.292;2024-02-04T09:55:00;11.13;;;6.75;;
52610;SDS011;38727;40.130;18.292;2024-02-04T09:57:32;14.95;;;7.28;;
52610;SDS011;38727;40.130;18.292;2024-02-04T10:00:07;12.88;;;8.07;;
52610;SDS011;38727;40.130;18.292;2024-02-04T10:02:42;12.23;;;6.90;;
52610;SDS011;38727;40.130;18.292;2024-02-04T10:05:12;8.80;;;6.60;;
52610;SDS011;38727;40.130;18.292;2024-02-04T10:07:43;12.48;;;6.68;;
52610;SDS011;38727;40.130;18.292;2024-02-04T10:10:15;9.43;;;6.45;;
52610;SDS011;38727;40.130;18.292;2024-02-04T10:12:46;9.35;;;6.22;;
52610;SDS011;38727;40.130;18.292;2024-02-04T10:15:19;9.52;;;6.40;;
52610;SDS011;38727;40.130;18.292;2024-02-04T10:17:50;9.85;;;6.35;;
52610;SDS011;38727;40.130;18.292;2024-02-04T10:20:22;10.77;;;5.38;;
52610;SDS011;38727;40.130;18.292;2024-02-04T10:22:53;10.57;;;5.80;;
52610;SDS011;38727;40.130;18.292;2024-02-04T10:25:24;8.05;;;6.28;;
52610;SDS011;38727;40.130;18.292;2024-02-04T10:27:55;9.27;;;5.60;;
52610;SDS011;38727;40.130;18.292;2024-02-04T10:30:28;8.95;;;5.63;;
52610;SDS011;38727;40.130;18.292;2024-02-04T10:32:59;9.18;;;6.10;;
52610;SDS011;38727;40.130;18.292;2024-02-04T10:35:30;8.15;;;5.90;;
52610;SDS011;38727;40.130;18.292;2024-02-04T10:38:01;10.95;;;5.40;;
52610;SDS011;38727;40.130;18.292;2024-02-04T10:40:35;10.95;;;6.03;;
52610;SDS011;38727;40.130;18.292;2024-02-04T10:43:07;11.50;;;7.03;;
52610;SDS011;38727;40.130;18.292;2024-02-04T10:45:39;10.27;;;6.38;;
52610;SDS011;38727;40.130;18.292;2024-02-04T10:48:14;10.18;;;6.10;;
52610;SDS011;38727;40.130;18.292;2024-02-04T10:50:49;10.68;;;6.53;;
52610;SDS011;38727;40.130;18.292;2024-02-04T10:53:24;9.80;;;6.53;;
52610;SDS011;38727;40.130;18.292;2024-02-04T10:55:55;7.90;;;4.95;;
52610;SDS011;38727;40.130;18.292;2024-02-04T10:58:30;8.90;;;5.18;;
52610;SDS011;38727;40.130;18.292;2024-02-04T11:01:04;9.38;;;4.80;;
52610;SDS011;38727;40.130;18.292;2024-02-04T11:03:35;7.65;;;5.30;;
52610;SDS011;38727;40.130;18.292;2024-02-04T11:06:07;8.10;;;5.25;;
52610;SDS011;38727;40.130;18.292;2024-02-04T11:08:39;8.40;;;5.38;;
52610;SDS011;38727;40.130;18.292;2024-02-04T11:11:10;8.13;;;4.78;;
52610;SDS011;38727;40.130;18.292;2024-02-04T11:13:43;6.00;;;3.95;;
52610;SDS011;38727;40.130;18.292;2024-02-04T11:16:21;8.18;;;4.95;;
52610;SDS011;38727;40.130;18.292;2024-02-04T11:19:08;6.22;;;4.70;;
52610;SDS011;38727;40.130;18.292;2024-02-04T11:21:55;8.68;;;5.43;;
52610;SDS011;38727;40.130;18.292;2024-02-04T11:24:46;6.50;;;5.20;;
52610;SDS011;38727;40.130;18.292;2024-02-04T11:27:25;8.13;;;4.93;;
52610;SDS011;38727;40.130;18.292;2024-02-04T11:29:57;7.03;;;4.57;;
52610;SDS011;38727;40.130;18.292;2024-02-04T11:32:29;6.75;;;4.80;;
52610;SDS011;38727;40.130;18.292;2024-02-04T11:35:05;7.55;;;5.38;;
52610;SDS011;38727;40.130;18.292;2024-02-04T11:37:43;7.10;;;4.53;;
52610;SDS011;38727;40.130;18.292;2024-02-04T11:40:16;6.75;;;4.57;;
52610;SDS011;38727;40.130;18.292;2024-02-04T11:42:46;8.30;;;4.55;;
52610;SDS011;38727;40.130;18.292;2024-02-04T11:45:17;6.20;;;4.07;;
52610;SDS011;38727;40.130;18.292;2024-02-04T11:47:49;5.90;;;4.40;;
52610;SDS011;38727;40.130;18.292;2024-02-04T11:50:30;6.10;;;5.05;;
52610;SDS011;38727;40.130;18.292;2024-02-04T11:53:02;6.45;;;4.53;;
52610;SDS011;38727;40.130;18.292;2024-02-04T11:55:36;6.88;;;4.65;;
52610;SDS011;38727;40.130;18.292;2024-02-04T11:58:10;6.05;;;4.28;;
52610;SDS011;38727;40.130;18.292;2024-02-04T12:00:42;7.45;;;4.72;;
52610;SDS011;38727;40.130;18.292;2024-02-04T12:03:15;5.95;;;3.90;;
52610;SDS011;38727;40.130;18.292;2024-02-04T12:05:46;5.80;;;4.32;;
52610;SDS011;38727;40.130;18.292;2024-02-04T12:08:17;8.88;;;4.43;;
52610;SDS011;38727;40.130;18.292;2024-02-04T12:10:49;6.70;;;4.13;;
52610;SDS011;38727;40.130;18.292;2024-02-04T12:13:20;6.72;;;4.53;;
52610;SDS011;38727;40.130;18.292;2024-02-04T12:15:50;6.32;;;4.28;;
52610;SDS011;38727;40.130;18.292;2024-02-04T12:18:22;6.40;;;4.45;;
52610;SDS011;38727;40.130;18.292;2024-02-04T12:20:54;5.38;;;4.10;;
52610;SDS011;38727;40.130;18.292;2024-02-04T12:23:25;7.45;;;4.20;;
52610;SDS011;38727;40.130;18.292;2024-02-04T12:25:57;6.28;;;4.07;;
52610;SDS011;38727;40.130;18.292;2024-02-04T12:28:28;8.07;;;4.22;;
52610;SDS011;38727;40.130;18.292;2024-02-04T12:30:58;6.20;;;4.75;;
52610;SDS011;38727;40.130;18.292;2024-02-04T12:33:31;5.95;;;4.03;;
52610;SDS011;38727;40.130;18.292;2024-02-04T12:36:02;5.53;;;4.18;;
52610;SDS011;38727;40.130;18.292;2024-02-04T12:38:33;7.60;;;4.38;;
52610;SDS011;38727;40.130;18.292;2024-02-04T12:41:04;8.30;;;4.25;;
52610;SDS011;38727;40.130;18.292;2024-02-04T12:43:38;8.32;;;4.20;;
52610;SDS011;38727;40.130;18.292;2024-02-04T12:46:09;6.65;;;4.03;;
52610;SDS011;38727;40.130;18.292;2024-02-04T12:48:41;5.53;;;4.10;;
52610;SDS011;38727;40.130;18.292;2024-02-04T12:51:12;5.63;;;3.97;;
52610;SDS011;38727;40.130;18.292;2024-02-04T12:56:40;5.85;;;4.10;;
52610;SDS011;38727;40.130;18.292;2024-02-04T12:59:22;8.77;;;4.65;;
52610;SDS011;38727;40.130;18.292;2024-02-04T13:01:57;7.15;;;4.25;;
52610;SDS011;38727;40.130;18.292;2024-02-04T13:04:34;6.30;;;4.70;;
52610;SDS011;38727;40.130;18.292;2024-02-04T13:07:06;7.93;;;4.63;;
52610;SDS011;38727;40.130;18.292;2024-02-04T13:09:38;6.93;;;4.18;;
52610;SDS011;38727;40.130;18.292;2024-02-04T13:12:09;6.55;;;4.97;;
52610;SDS011;38727;40.130;18.292;2024-02-04T13:14:41;6.93;;;4.72;;
52610;SDS011;38727;40.130;18.292;2024-02-04T13:17:12;5.90;;;4.88;;
52610;SDS011;38727;40.130;18.292;2024-02-04T13:19:44;7.07;;;4.55;;
52610;SDS011;38727;40.130;18.292;2024-02-04T13:22:15;7.00;;;4.72;;
52610;SDS011;38727;40.130;18.292;2024-02-04T13:27:19;8.10;;;5.68;;
52610;SDS011;38727;40.130;18.292;2024-02-04T13:29:52;7.80;;;5.70;;
52610;SDS011;38727;40.130;18.292;2024-02-04T13:32:27;8.50;;;5.70;;
52610;SDS011;38727;40.130;18.292;2024-02-04T13:34:59;8.88;;;6.07;;
52610;SDS011;38727;40.130;18.292;2024-02-04T13:37:29;9.85;;;6.28;;
52610;SDS011;38727;40.130;18.292;2024-02-04T13:42:35;9.70;;;6.13;;
52610;SDS011;38727;40.130;18.292;2024-02-04T13:45:06;9.63;;;6.03;;
52610;SDS011;38727;40.130;18.292;2024-02-04T13:47:42;8.95;;;6.85;;
52610;SDS011;38727;40.130;18.292;2024-02-04T13:50:14;9.35;;;6.43;;
52610;SDS011;38727;40.130;18.292;2024-02-04T13:52:44;8.63;;;6.50;;
52610;SDS011;38727;40.130;18.292;2024-02-04T13:55:19;8.95;;;5.93;;
52610;SDS011;38727;40.130;18.292;2024-02-04T13:57:51;9.25;;;6.38;;
52610;SDS011;38727;40.130;18.292;2024-02-04T14:00:23;10.05;;;6.38;;
52610;SDS011;38727;40.130;18.292;2024-02-04T14:03:01;8.65;;;6.43;;
52610;SDS011;38727;40.130;18.292;2024-02-04T14:05:33;9.60;;;6.57;;
52610;SDS011;38727;40.130;18.292;2024-02-04T14:08:05;9.87;;;6.03;;
52610;SDS011;38727;40.130;18.292;2024-02-04T14:10:35;11.50;;;7.65;;
52610;SDS011;38727;40.130;18.292;2024-02-04T14:13:06;10.18;;;7.13;;
52610;SDS011;38727;40.130;18.292;2024-02-04T14:15:39;9.43;;;7.38;;
52610;SDS011;38727;40.130;18.292;2024-02-04T14:18:10;10.30;;;7.15;;
52610;SDS011;38727;40.130;18.292;2024-02-04T14:20:42;9.68;;;7.30;;
52610;SDS011;38727;40.130;18.292;2024-02-04T14:23:14;12.90;;;7.32;;
52610;SDS011;38727;40.130;18.292;2024-02-04T14:25:47;11.02;;;6.90;;
52610;SDS011;38727;40.130;18.292;2024-02-04T14:28:17;10.60;;;6.18;;
52610;SDS011;38727;40.130;18.292;2024-02-04T14:30:47;10.18;;;7.35;;
52610;SDS011;38727;40.130;18.292;2024-02-04T14:33:20;8.15;;;6.57;;
52610;SDS011;38727;40.130;18.292;2024-02-04T14:35:53;9.75;;;7.25;;
52610;SDS011;38727;40.130;18.292;2024-02-04T14:38:24;9.05;;;6.43;;
52610;SDS011;38727;40.130;18.292;2024-02-04T14:40:55;8.27;;;6.65;;
52610;SDS011;38727;40.130;18.292;2024-02-04T14:43:27;8.30;;;6.57;;
52610;SDS011;38727;40.130;18.292;2024-02-04T14:45:58;8.85;;;6.60;;
52610;SDS011;38727;40.130;18.292;2024-02-04T14:48:29;10.05;;;7.25;;
52610;SDS011;38727;40.130;18.292;2024-02-04T14:51:01;10.68;;;7.03;;
52610;SDS011;38727;40.130;18.292;2024-02-04T14:53:31;11.32;;;6.82;;
52610;SDS011;38727;40.130;18.292;2024-02-04T14:56:02;7.78;;;6.30;;